VE-0165 weather

Punta de Mata Airport
Punta de Mata, Anzoategui, Venezuela

Public forecast

Using degrees Celsius for public forecast. Weather courtesy of forecast.io.

Closest aviation weather report (METAR) to Punta de Mata Airport

Report is more than 6 hours old.

Closest report is Maturín Airport, 30.2 nm (55.9 km) E. Retrieved 2018/12/04 12:00 UTC (1 year ago):

SVMT 041200Z /////KT 9999 SCT010 BKN300 23/22 Q1011

Closest aviation forecast (TAF) to Punta de Mata Airport

Closest forecast is General José Antonio Anzoategui International Airport, 67.2 nm (124.4 km) WNW. Retrieved 2019/12/13 12:03 UTC (4 hours ago):

TAF TAF SVBC 131000Z 1312/1412 05005KT 9999 SCT016 TX32/19Z TN23/08Z BECMG 1312/1318 07004KT